EGSC

Cambridge Airport

Cambridge, United Kingdom
METAR EGSC 121750Z VRB03KT CAVOK 01/M03 Q1022
Observed Flight Rules
Dec-12 @ 17:50 UTC (5 hours ago) Visual Flight Rules
Wind Visibility Clouds
Variable at 3 knots 10,000+ meters
  • Clear skies
Temperatures Readings
Current 1°C / 34°F
Dewpoint -3°C / 27°F
Humidity 75%
Altimeter 30.18" Hg
Pressure 1022 hPa
Elevation 15
METAR EGSC 121750Z VRB03KT CAVOK 01/M03 Q1022
Observed Flight Rules
Dec-12 @ 17:50 UTC
(5 hours ago)
VFR
Wind Visibility
Variable at 3 knots 10,000+ meters
Clouds
  • Clear skies
Temperature Dewpoint
1°C / 34°F -3°C / 27°F
Humidity Altimeter Pressure
75% 30.18" Hg 1022 hPa